Flight Track Log - Related Links

Times and Time Zones

All times are in EDT time to prevent confusion due to time zone crossing. See the SWA127 flight status page for this flight to view local times or setup timezone preferences in your user account.

Time Position Orientation Groundspeed Altitude Reporting Facility
EDT Latitude Longitude Course Direction KTS MPH feet Rate Location/Type
Sun 02:17:36 PM 29.6333 -95.2678 158° South 146 168 700  Level Houston Center
Sun 02:18:38 PM 29.5875 -95.2469 158° South 191 220 2,600 2,063 Climbing Houston Center
Sun 02:19:12 PM 29.5592 -95.2353 160° South 213 245 4,000 2,688 Climbing Houston Center
Sun 02:20:14 PM 29.4972 -95.2161 165° South 227 261 6,900 2,903 Climbing Houston Center
Sun 02:21:16 PM 29.4256 -95.2508 203° Southwest 275 316 10,000 2,806 Climbing Houston Center
Sun 02:22:18 PM 29.3439 -95.2936 205° Southwest 314 361 12,700 2,903 Climbing Houston Center
Sun 02:23:20 PM 29.2583 -95.3461 208° Southwest 342 394 16,000 3,145 Climbing Houston Center
Sun 02:24:22 PM 29.1628 -95.4369 220° Southwest 367 422 19,200 3,000 Climbing Houston Center
Sun 02:25:24 PM 29.0839 -95.5142 221° Southwest 371 427 22,200 2,640 Climbing Houston Center
Sun 02:26:27 PM 29.0036 -95.5914 220° Southwest 376 433 24,700 2,256 Climbing Houston Center
Sun 02:27:29 PM 28.9247 -95.6700 221° Southwest 378 435 26,900 1,742 Climbing Houston Center
Sun 02:28:31 PM 28.8419 -95.7519 221° Southwest 390 449 28,300 1,935 Climbing Houston Center
Sun 02:29:33 PM 28.7406 -95.8511 221° Southwest 399 459 30,900 2,565 Climbing Houston Center
Sun 02:30:35 PM 28.6608 -95.9286 220° Southwest 380 437 33,600 1,452 Climbing Houston Center
Sun 02:31:37 PM 28.5911 -95.9958 220° Southwest 363 418 33,900 194 Climbing Houston Center
Sun 02:32:39 PM 28.5153 -96.0692 220° Southwest 360 414 34,000 48 Climbing Houston Center
Sun 02:33:41 PM 28.4233 -96.1569 220° Southwest 359 413 34,000  Level Houston Center
Sun 02:34:43 PM 28.3481 -96.2308 221° Southwest 358 412 34,000  Level Houston Center
Sun 02:35:46 PM 28.2728 -96.3047 221° Southwest 358 412 34,000  Level Houston Center
Sun 02:36:48 PM 28.1969 -96.3761 220° Southwest 355 409 34,000 -48 Level Houston Center
Sun 02:37:50 PM 28.1208 -96.4478 220° Southwest 355 409 33,900  Descending Houston Center
Sun 02:38:52 PM 28.0464 -96.5206 221° Southwest 353 406 34,000 48 Climbing Houston Center
Sun 02:39:55 PM 27.9550 -96.6058 220° Southwest 355 409 34,000  Level Houston Center
Sun 02:40:56 PM 27.8792 -96.6794 221° Southwest 356 410 34,000  Level Houston Center
Sun 02:41:58 PM 27.8031 -96.7536 221° Southwest 359 413 34,000  Level Houston Center
Sun 02:43:00 PM 27.7250 -96.8256 219° Southwest 361 415 34,000  Level Houston Center
Sun 02:44:02 PM 27.6489 -96.9000 221° Southwest 362 417 34,000 -192 Level Houston Center
Sun 02:45:05 PM 27.5728 -96.9711 220° Southwest 359 413 33,600 -720 Descending Houston Center
Sun 02:46:07 PM 27.4875 -97.0508 220° Southwest 340 391 32,500 -1,403 Descending Houston Center
Sun 02:47:09 PM 27.4233 -97.1111 220° Southwest 335 386 30,700 -3,435 Descending Houston Center
Sun 02:48:11 PM 27.3442 -97.1867 220° Southwest 363 418 25,400 -3,968 Descending Houston Center
Sun 02:49:13 PM 27.2403 -97.2822 219° Southwest 398 458 22,500 -1,935 Descending Houston Center
Sun 02:50:15 PM 27.1683 -97.3503 220° Southwest 356 410 21,400 -1,258 Descending Houston Center
Sun 02:51:17 PM 27.0992 -97.4139 219° Southwest 310 357 19,900 -1,500 Descending Houston Center
Sun 02:52:19 PM 27.0261 -97.4792 219° Southwest 318 366 18,300 -1,485 Descending Houston Center
Sun 02:52:54 PM 26.9886 -97.5200 224° Southwest 324 373 17,500 -1,645 Descending Houston Center
Sun 02:53:21 PM 26.9567 -97.5464 216° Southwest 319 367 16,600 -1,500 Descending Houston Center
Sun 02:53:54 PM 26.9178 -97.5861 222° Southwest 317 365 16,000 -571 Descending Houston Center
Sun 02:54:24 PM 26.8894 -97.6108 218° Southwest 313 360 16,000 -90 Level Houston Center
Sun 02:55:01 PM 26.8469 -97.6497 219° Southwest 311 358 15,900 -774 Descending Houston Center
Sun 02:55:26 PM 26.8169 -97.6775 220° Southwest 311 358 15,200 -2,500 Descending Houston Center
Sun 02:56:01 PM 26.7742 -97.7156 218° Southwest 312 359 13,400 -2,226 Descending Houston Center
Sun 02:56:28 PM 26.7472 -97.7381 217° Southwest 304 350 12,900 -1,574 Descending Houston Center
Sun 02:57:02 PM 26.6906 -97.7408 183° South 319 367 11,800 -1,935 Descending Houston Center
Sun 02:57:30 PM 26.6508 -97.7394 178° South 317 365 10,900 -1,574 Descending Houston Center
Sun 02:58:03 PM 26.6042 -97.7408 182° South 314 361 10,200 -1,355 Descending Houston Center
Sun 02:58:32 PM 26.5658 -97.7419 181° South 306 352 9,500 -1,600 Descending Houston Center
Sun 02:59:03 PM 26.5222 -97.7422 180° South 284 327 8,600 -1,645 Descending Houston Center
Sun 02:59:34 PM 26.4872 -97.7450 184° South 283 326 7,800 -1,672 Descending Houston Center
Sun 03:00:04 PM 26.4431 -97.7481 184° South 280 322 6,900 -1,742 Descending Houston Center
Sun 03:00:36 PM 26.4025 -97.7525 186° South 281 323 6,000 -1,869 Descending Houston Center
Sun 03:01:05 PM 26.3658 -97.7561 185° South 279 321 5,000 -1,839 Descending Houston Center
Sun 03:01:38 PM 26.3244 -97.7553 179° South 281 323 4,100 -1,600 Descending Houston Center
Sun 03:02:05 PM 26.2881 -97.7547 179° South 278 320 3,400 -1,065 Descending Houston Center
Sun 03:02:40 PM 26.2442 -97.7483 173° South 263 303 3,000 -590 Descending Houston Center
Sun 03:03:06 PM 26.2192 -97.7406 164° South 236 272 2,800 -571 Descending Houston Center
Sun 03:03:43 PM 26.1856 -97.7253 158° South 226 260 2,400 -900 Descending Houston Center
Sun 03:04:06 PM 26.1756 -97.7092 125° Southeast 168 193 1,900 -968 Descending Houston Center
Sun 03:04:45 PM 26.1742 -97.6794 93° East 157 181 1,400 -787 Descending Houston Center
Sun 03:05:07 PM 26.1794 -97.6667 65° Northeast 111 128 1,100 -968 Descending Houston Center
Sun 03:05:47 PM 26.2003 -97.6594 17° North 120 138 400 -1,050 Descending Houston Center

Login

Don't have an account? Register now (free) for customized features, flight alerts, and more!